Terminal Aerodrome Forecast
Issued by NWS

Home | Current Version | Previous Version | Text Only | Print | Product List | Glossary On
Versions: 1 2 3 4 5 6 7 8 9 10 11 12 13 14
000
FTUS45 KGJT 240526
TAFRIL
TAF
KRIL 240526Z 2406/2506 24009KT P6SM BKN150
      TEMPO 2407/2409 27015G35KT
     FM240900 27011KT P6SM BKN120
     FM241900 24009KT P6SM OVC090
     FM242200 24013G22KT P6SM VCSH OVC070
     FM250000 26013G25KT P6SM -SHRA OVC070
     FM250200 24008KT P6SM -SHRA OVC050=

USA.gov is the U.S. government's official web portal to all federal, state and local government web resources and services.